createdAt,value
2022-08-10T00:02:35.626Z,13.32
2022-08-10T00:05:43.675Z,13.22
2022-08-10T00:08:51.693Z,13.05
2022-08-10T00:11:57.037Z,12.93
2022-08-10T00:15:04.217Z,15.10
2022-08-10T00:18:09.881Z,13.40
2022-08-10T00:21:27.148Z,11.45
2022-08-10T00:24:29.881Z,14.50
2022-08-10T00:27:57.859Z,11.03
2022-08-10T00:30:43.535Z,12.55
2022-08-10T00:33:50.425Z,11.00
2022-08-10T00:36:56.489Z,11.75
2022-08-10T00:40:02.649Z,12.78
2022-08-10T00:43:08.294Z,13.85
2022-08-10T00:46:13.276Z,10.85
2022-08-10T00:49:18.705Z,10.68
2022-08-10T00:52:24.205Z,11.15
2022-08-10T00:55:30.398Z,9.68
2022-08-10T00:58:36.486Z,13.18
2022-08-10T01:02:08.441Z,11.85
2022-08-10T01:04:59.864Z,14.00
2022-08-10T01:08:19.314Z,9.65
2022-08-10T01:12:37.921Z,11.38
2022-08-10T01:15:15.174Z,9.40
2022-08-10T01:18:37.931Z,13.13
2022-08-10T01:21:57.194Z,9.28
2022-08-10T01:25:20.249Z,9.03
2022-08-10T01:28:39.313Z,10.72
2022-08-10T01:31:48.848Z,8.78
2022-08-10T01:35:01.188Z,8.63
2022-08-10T01:38:19.715Z,9.05
2022-08-10T01:41:45.615Z,13.15
2022-08-10T01:44:51.957Z,8.75
2022-08-10T01:48:18.453Z,9.60
2022-08-10T01:51:44.379Z,8.65
2022-08-10T01:54:49.934Z,8.58
2022-08-10T01:57:58.963Z,10.30
2022-08-10T02:01:05.560Z,9.05
2022-08-10T02:04:16.639Z,11.35
2022-08-10T02:07:23.848Z,12.60
2022-08-10T02:10:32.923Z,11.03
2022-08-10T02:13:38.275Z,9.03
2022-08-10T02:16:43.720Z,9.48
2022-08-10T02:19:51.171Z,9.45
2022-08-10T02:23:01.998Z,10.82
2022-08-10T02:26:09.987Z,9.73
2022-08-10T02:29:16.675Z,10.78
2022-08-10T02:32:36.588Z,11.50
2022-08-10T02:35:54.561Z,9.18
2022-08-10T02:38:58.563Z,10.38
2022-08-10T02:45:16.176Z,10.10
2022-08-10T02:45:33.902Z,11.08
2022-08-10T02:48:44.347Z,11.10
2022-08-10T02:52:16.407Z,11.55
2022-08-10T02:55:27.167Z,11.45
2022-08-10T02:58:44.923Z,18.12
2022-08-10T03:01:55.578Z,12.70
2022-08-10T03:05:02.911Z,13.80
2022-08-10T03:08:18.568Z,14.38
2022-08-10T03:12:35.035Z,17.48
2022-08-10T03:14:42.592Z,14.50
2022-08-10T03:17:56.860Z,16.70
2022-08-10T03:20:59.092Z,16.23
2022-08-10T03:24:26.156Z,16.45
2022-08-10T03:27:13.077Z,16.20
2022-08-10T03:30:28.366Z,16.30
2022-08-10T03:33:28.786Z,20.55
2022-08-10T03:36:43.987Z,14.53
2022-08-10T03:39:46.698Z,18.32
2022-08-10T03:46:05.893Z,13.25
2022-08-10T03:49:13.203Z,14.58
2022-08-10T03:52:22.958Z,11.85
2022-08-10T03:56:29.666Z,12.55
2022-08-10T03:58:38.779Z,13.43
2022-08-10T04:02:52.880Z,16.12
2022-08-10T04:04:52.867Z,16.77
2022-08-10T04:08:00.849Z,13.00
2022-08-10T04:11:08.957Z,16.30
2022-08-10T04:14:38.510Z,12.35
2022-08-10T04:18:02.637Z,16.45
2022-08-10T04:21:06.173Z,11.35
2022-08-10T04:24:26.795Z,15.55
2022-08-10T04:27:27.619Z,12.35
2022-08-10T04:30:38.451Z,11.28
2022-08-10T04:33:43.764Z,12.40
2022-08-10T04:36:53.443Z,17.02
2022-08-10T04:40:01.394Z,15.43
2022-08-10T04:43:13.210Z,11.45
2022-08-10T04:46:55.710Z,15.38
2022-08-10T04:49:54.228Z,12.75
2022-08-10T04:52:46.338Z,12.60
2022-08-10T04:55:52.407Z,13.45
2022-08-10T04:59:01.410Z,13.03
2022-08-10T05:02:29.068Z,17.35
2022-08-10T05:05:28.528Z,12.55
2022-08-10T05:08:35.706Z,13.80
2022-08-10T05:11:44.074Z,13.15
2022-08-10T05:14:53.905Z,16.32
2022-08-10T05:18:09.783Z,13.70
2022-08-10T05:22:03.233Z,15.15
2022-08-10T05:24:19.142Z,15.90
2022-08-10T05:27:25.539Z,14.25
2022-08-10T05:30:36.254Z,13.30
2022-08-10T05:33:47.428Z,15.05
2022-08-10T05:37:00.586Z,14.28
2022-08-10T05:40:11.257Z,20.32
2022-08-10T05:43:17.195Z,15.80
2022-08-10T05:46:28.305Z,14.55
2022-08-10T05:49:39.557Z,18.90
2022-08-10T05:52:46.415Z,19.12
2022-08-10T05:55:54.672Z,16.02
2022-08-10T05:59:01.411Z,17.60
2022-08-10T06:02:32.732Z,17.27
2022-08-10T06:05:33.568Z,14.33
2022-08-10T06:08:42.407Z,16.00
2022-08-10T06:12:24.131Z,14.40
2022-08-10T06:15:23.421Z,18.00
2022-08-10T06:18:23.618Z,14.58
2022-08-10T06:21:33.870Z,19.23
2022-08-10T06:25:12.348Z,15.48
2022-08-10T06:27:58.506Z,19.32
2022-08-10T06:31:09.255Z,18.32
2022-08-10T06:34:20.095Z,16.17
2022-08-10T06:37:27.861Z,13.95
2022-08-10T06:40:34.087Z,15.20
2022-08-10T06:43:41.200Z,16.73
2022-08-10T06:46:53.668Z,13.25
2022-08-10T06:50:09.219Z,15.18
2022-08-10T12:29:59.077Z,11.15
2022-08-10T12:33:23.192Z,8.88
2022-08-10T12:36:37.484Z,11.00
2022-08-10T12:39:46.693Z,15.50
2022-08-10T12:44:07.666Z,12.55
2022-08-10T12:46:34.533Z,10.32
2022-08-10T12:50:23.793Z,9.48
2022-08-10T12:53:19.573Z,10.68
2022-08-10T12:56:25.961Z,10.70
2022-08-10T12:59:43.403Z,9.88
2022-08-10T13:02:49.509Z,8.93
2022-08-10T13:06:02.871Z,9.45
2022-08-10T13:09:16.656Z,8.40
2022-08-10T13:12:34.809Z,12.15
2022-08-10T13:15:50.782Z,11.20
2022-08-10T13:18:57.297Z,14.60
2022-08-10T13:22:03.259Z,8.90
2022-08-10T13:25:02.878Z,11.05
2022-08-10T13:28:01.348Z,11.30
2022-08-10T13:31:05.898Z,8.68
2022-08-10T13:34:42.371Z,7.47
2022-08-10T13:37:25.922Z,10.32
2022-08-10T13:40:36.930Z,8.30
2022-08-10T13:43:44.570Z,11.15
2022-08-10T13:46:55.598Z,9.30
2022-08-10T13:50:10.813Z,7.80
2022-08-10T13:53:26.960Z,9.85
2022-08-10T14:00:35.306Z,9.33
2022-08-10T14:03:04.120Z,12.40
2022-08-10T14:06:12.689Z,10.43
2022-08-10T14:09:24.355Z,9.83
2022-08-10T14:12:33.409Z,8.33
2022-08-10T14:15:44.960Z,8.20
2022-08-10T14:18:52.946Z,8.38
2022-08-10T14:21:59.493Z,10.93
2022-08-10T14:25:05.598Z,10.10
2022-08-10T14:28:12.265Z,11.10
2022-08-10T14:31:24.688Z,11.33
2022-08-10T14:37:56.684Z,10.55
2022-08-10T14:41:05.401Z,9.43
2022-08-10T14:44:16.202Z,7.58
2022-08-10T14:47:53.687Z,9.88
2022-08-10T14:50:35.766Z,8.75
2022-08-10T14:53:42.581Z,9.98
2022-08-10T14:56:52.160Z,11.12
2022-08-10T15:00:24.834Z,15.03
2022-08-10T15:03:16.067Z,12.47
2022-08-10T15:06:17.070Z,7.45
2022-08-10T15:09:59.435Z,10.13
2022-08-10T15:12:39.297Z,9.08
2022-08-10T15:16:09.442Z,13.32
2022-08-10T15:19:01.515Z,8.45
2022-08-10T15:22:35.687Z,14.15
2022-08-10T15:25:24.657Z,7.35
2022-08-10T15:28:31.407Z,6.97
2022-08-10T15:31:39.546Z,7.15
2022-08-10T15:35:04.940Z,8.78
2022-08-10T15:38:18.202Z,9.78
2022-08-10T15:41:57.228Z,8.10
2022-08-10T15:44:36.321Z,7.95
2022-08-10T15:47:52.736Z,7.50
2022-08-10T15:51:06.115Z,7.47
2022-08-10T15:54:17.853Z,7.80
2022-08-10T16:00:33.863Z,6.78
2022-08-10T16:03:54.576Z,11.15
2022-08-10T16:07:21.754Z,12.55
2022-08-10T16:10:36.605Z,6.70
2022-08-10T16:13:50.782Z,8.48
2022-08-10T16:16:50.431Z,6.20
2022-08-10T16:20:06.306Z,6.45
2022-08-10T16:23:21.219Z,8.53
2022-08-10T16:26:32.432Z,7.10
2022-08-10T16:29:56.437Z,5.53
2022-08-10T16:32:48.588Z,7.85
2022-08-10T16:35:54.810Z,6.05
2022-08-10T16:39:04.717Z,8.70
2022-08-10T16:42:14.476Z,6.92
2022-08-10T16:45:33.962Z,7.12
2022-08-10T16:48:49.822Z,8.50
2022-08-10T16:51:47.471Z,7.28
2022-08-10T16:54:53.550Z,6.87
2022-08-10T16:58:02.096Z,8.80
2022-08-10T17:01:08.437Z,6.60
2022-08-10T17:04:16.743Z,8.35
2022-08-10T17:07:35.195Z,6.95
2022-08-10T17:10:33.818Z,6.62
2022-08-10T17:13:39.149Z,14.05
2022-08-10T17:16:56.828Z,10.03
2022-08-10T17:20:31.653Z,7.37
2022-08-10T17:23:15.403Z,7.35
2022-08-10T17:26:35.625Z,8.95
2022-08-10T17:29:58.924Z,9.30
2022-08-10T17:33:08.195Z,6.80
2022-08-10T17:36:17.167Z,9.80
2022-08-10T17:39:27.258Z,8.45
2022-08-10T17:42:35.765Z,8.03
2022-08-10T17:45:49.470Z,9.98
2022-08-10T17:48:56.941Z,6.72
2022-08-10T17:52:09.064Z,8.50
2022-08-10T17:55:19.859Z,8.97
2022-08-10T17:58:34.613Z,6.85
2022-08-10T18:02:01.905Z,8.50
2022-08-10T18:04:53.395Z,11.50
2022-08-10T18:08:07.739Z,12.73
2022-08-10T18:11:17.143Z,6.85
2022-08-10T18:14:25.719Z,11.55
2022-08-10T18:17:39.164Z,7.00
2022-08-10T18:20:50.547Z,6.20
2022-08-10T18:23:57.164Z,10.45
2022-08-10T18:27:05.077Z,7.80
2022-08-10T18:30:18.462Z,6.83
2022-08-10T18:33:27.391Z,8.70
2022-08-10T18:36:34.435Z,7.45
2022-08-10T18:39:48.827Z,8.80
2022-08-10T18:44:11.159Z,6.40
2022-08-10T18:46:15.157Z,8.30
2022-08-10T18:49:22.792Z,6.67
2022-08-10T18:52:28.695Z,6.05
2022-08-10T18:56:08.694Z,8.13
2022-08-10T18:59:28.581Z,6.75
2022-08-10T19:03:17.414Z,6.53
2022-08-10T19:06:48.346Z,9.30
2022-08-10T19:10:46.108Z,7.67
2022-08-10T19:14:34.161Z,7.17
2022-08-10T19:18:03.346Z,7.03
2022-08-10T19:21:07.113Z,6.80
2022-08-10T19:24:41.449Z,9.45
2022-08-10T19:28:06.686Z,8.03
2022-08-10T19:31:55.507Z,8.50
2022-08-10T19:35:32.098Z,6.25
2022-08-10T19:38:50.787Z,7.50
2022-08-10T19:42:31.100Z,7.50
2022-08-10T19:45:55.878Z,7.17
2022-08-10T19:49:16.453Z,8.45
2022-08-10T19:52:48.828Z,11.05
2022-08-10T19:56:33.573Z,7.85
2022-08-10T20:00:15.741Z,7.62
2022-08-10T20:03:33.943Z,10.57
2022-08-10T20:07:02.696Z,10.15
2022-08-10T20:10:18.735Z,6.97
2022-08-10T20:13:35.617Z,9.13
2022-08-10T20:16:49.174Z,8.38
2022-08-10T20:20:26.531Z,7.87
2022-08-10T20:23:53.922Z,10.75
2022-08-10T20:27:57.449Z,12.70
2022-08-10T20:30:29.270Z,6.75
2022-08-10T20:33:49.297Z,7.37
2022-08-10T20:37:11.496Z,9.60
2022-08-10T20:40:42.361Z,7.50
2022-08-10T20:44:14.369Z,7.53
2022-08-10T20:47:37.260Z,7.43
2022-08-10T20:50:50.412Z,10.80
2022-08-10T20:54:03.006Z,8.15
2022-08-10T20:58:04.697Z,7.17
2022-08-10T21:01:17.702Z,8.48
2022-08-10T21:04:49.263Z,10.60
2022-08-10T21:08:11.012Z,9.18
2022-08-10T21:11:54.067Z,8.58
2022-08-10T21:15:41.720Z,10.98
2022-08-10T21:19:07.918Z,7.20
2022-08-10T21:22:39.044Z,7.42
2022-08-10T21:26:06.695Z,8.53
2022-08-10T21:29:53.937Z,10.50
2022-08-10T21:33:24.273Z,8.70
2022-08-10T21:37:08.045Z,6.80
2022-08-10T21:40:36.178Z,9.13
2022-08-10T21:44:26.266Z,9.43
2022-08-10T21:48:17.204Z,9.43
2022-08-10T21:52:07.542Z,10.78
2022-08-10T21:55:59.321Z,10.18
2022-08-10T21:59:44.302Z,8.88
2022-08-10T22:03:10.432Z,8.85
2022-08-10T22:06:35.289Z,8.25
2022-08-10T22:10:06.584Z,8.45
2022-08-10T22:13:34.459Z,7.15
2022-08-10T22:18:03.586Z,8.95
2022-08-10T22:20:49.734Z,8.78
2022-08-10T22:24:29.406Z,8.38
2022-08-10T22:28:17.435Z,8.53
2022-08-10T22:31:41.644Z,9.33
2022-08-10T22:35:39.144Z,8.65
2022-08-10T22:39:16.672Z,12.53
2022-08-10T22:42:59.602Z,9.90
2022-08-10T22:46:29.553Z,9.50
2022-08-10T22:49:39.211Z,12.53
2022-08-10T22:52:58.909Z,11.40
2022-08-10T22:56:17.437Z,8.35
2022-08-10T22:59:24.154Z,11.30
2022-08-10T23:02:46.700Z,12.25
2022-08-10T23:05:59.985Z,8.03
2022-08-10T23:09:10.548Z,11.93
2022-08-10T23:12:21.234Z,13.62
2022-08-10T23:16:02.097Z,11.85
2022-08-10T23:19:17.578Z,9.13
2022-08-10T23:22:31.634Z,8.48
2022-08-10T23:25:38.719Z,10.10
2022-08-10T23:28:58.300Z,8.90
2022-08-10T23:32:06.834Z,9.23
2022-08-10T23:36:30.006Z,9.90
2022-08-10T23:38:13.723Z,9.78
2022-08-10T23:41:19.340Z,10.15
2022-08-10T23:44:24.898Z,9.40
2022-08-10T23:47:34.762Z,11.83
2022-08-10T23:50:43.421Z,11.35
2022-08-10T23:53:53.954Z,10.38
2022-08-10T23:57:05.024Z,10.80
